sensor_id;sensor_type;location;lat;lon;timestamp;temperature;humidity
52435;DHT22;38354;52.892;6.148;2022-07-23T04:00:48;12.20;99.90
52435;DHT22;38354;52.892;6.148;2022-07-23T04:03:14;12.20;99.90
52435;DHT22;38354;52.892;6.148;2022-07-23T04:05:39;12.30;99.90
52435;DHT22;38354;52.892;6.148;2022-07-23T04:08:05;12.20;99.90
52435;DHT22;38354;52.892;6.148;2022-07-23T04:10:30;12.10;99.90
52435;DHT22;38354;52.892;6.148;2022-07-23T04:12:56;12.10;99.90
52435;DHT22;38354;52.892;6.148;2022-07-23T04:15:22;12.10;99.90
52435;DHT22;38354;52.892;6.148;2022-07-23T04:17:47;12.10;99.90
52435;DHT22;38354;52.892;6.148;2022-07-23T04:20:13;12.10;99.90
52435;DHT22;38354;52.892;6.148;2022-07-23T04:22:39;12.10;99.90
52435;DHT22;38354;52.892;6.148;2022-07-23T04:25:05;12.10;99.90
52435;DHT22;38354;52.892;6.148;2022-07-23T04:27:30;12.20;99.90
52435;DHT22;38354;52.892;6.148;2022-07-23T04:29:58;12.10;99.90
52435;DHT22;38354;52.892;6.148;2022-07-23T04:32:24;12.20;99.90
52435;DHT22;38354;52.892;6.148;2022-07-23T04:34:50;12.20;99.90
52435;DHT22;38354;52.892;6.148;2022-07-23T04:37:15;12.10;99.90
52435;DHT22;38354;52.892;6.148;2022-07-23T04:39:41;12.10;99.90
52435;DHT22;38354;52.892;6.148;2022-07-23T04:42:07;12.10;99.90
52435;DHT22;38354;52.892;6.148;2022-07-23T04:44:32;12.20;99.90
52435;DHT22;38354;52.892;6.148;2022-07-23T04:46:58;12.20;99.90
52435;DHT22;38354;52.892;6.148;2022-07-23T04:49:24;12.20;99.90
52435;DHT22;38354;52.892;6.148;2022-07-23T04:51:49;12.20;99.90
52435;DHT22;38354;52.892;6.148;2022-07-23T04:54:15;12.30;99.90
52435;DHT22;38354;52.892;6.148;2022-07-23T04:56:40;12.30;99.90
52435;DHT22;38354;52.892;6.148;2022-07-23T04:59:06;12.30;99.90
52435;DHT22;38354;52.892;6.148;2022-07-23T05:01:31;12.40;99.90
52435;DHT22;38354;52.892;6.148;2022-07-23T05:03:57;12.40;99.90
52435;DHT22;38354;52.892;6.148;2022-07-23T05:06:23;12.50;99.90
52435;DHT22;38354;52.892;6.148;2022-07-23T05:08:48;12.50;99.90
52435;DHT22;38354;52.892;6.148;2022-07-23T05:11:14;12.60;99.90
52435;DHT22;38354;52.892;6.148;2022-07-23T05:13:40;12.60;99.90
52435;DHT22;38354;52.892;6.148;2022-07-23T05:16:05;12.70;99.90
52435;DHT22;38354;52.892;6.148;2022-07-23T05:18:31;12.70;99.90
52435;DHT22;38354;52.892;6.148;2022-07-23T05:20:57;12.80;99.90
52435;DHT22;38354;52.892;6.148;2022-07-23T05:23:22;12.80;99.90
52435;DHT22;38354;52.892;6.148;2022-07-23T05:25:48;12.90;99.90
52435;DHT22;38354;52.892;6.148;2022-07-23T05:28:15;12.90;99.90
52435;DHT22;38354;52.892;6.148;2022-07-23T05:30:40;12.90;99.90
52435;DHT22;38354;52.892;6.148;2022-07-23T05:33:06;13.00;99.90
52435;DHT22;38354;52.892;6.148;2022-07-23T05:35:33;13.10;99.90
52435;DHT22;38354;52.892;6.148;2022-07-23T05:37:59;13.20;99.90
52435;DHT22;38354;52.892;6.148;2022-07-23T05:40:24;13.20;99.90
52435;DHT22;38354;52.892;6.148;2022-07-23T05:42:50;13.30;99.90
52435;DHT22;38354;52.892;6.148;2022-07-23T05:45:16;13.30;99.90
52435;DHT22;38354;52.892;6.148;2022-07-23T05:47:46;13.40;99.90
52435;DHT22;38354;52.892;6.148;2022-07-23T05:50:13;13.50;99.90
52435;DHT22;38354;52.892;6.148;2022-07-23T05:52:39;13.50;99.90
52435;DHT22;38354;52.892;6.148;2022-07-23T05:55:06;13.60;99.90
52435;DHT22;38354;52.892;6.148;2022-07-23T05:57:32;13.70;99.90
52435;DHT22;38354;52.892;6.148;2022-07-23T05:59:58;13.80;99.90
52435;DHT22;38354;52.892;6.148;2022-07-23T06:02:23;13.80;99.90
52435;DHT22;38354;52.892;6.148;2022-07-23T06:04:49;13.90;99.90
52435;DHT22;38354;52.892;6.148;2022-07-23T06:07:15;14.00;99.90
52435;DHT22;38354;52.892;6.148;2022-07-23T06:09:40;14.10;99.90
52435;DHT22;38354;52.892;6.148;2022-07-23T06:12:06;14.20;99.90
52435;DHT22;38354;52.892;6.148;2022-07-23T06:14:32;14.30;99.90
52435;DHT22;38354;52.892;6.148;2022-07-23T06:16:58;14.40;99.90
52435;DHT22;38354;52.892;6.148;2022-07-23T06:19:24;14.50;99.90
52435;DHT22;38354;52.892;6.148;2022-07-23T06:21:50;14.60;99.90
52435;DHT22;38354;52.892;6.148;2022-07-23T06:24:16;14.60;99.90
52435;DHT22;38354;52.892;6.148;2022-07-23T06:26:42;14.70;99.90
52435;DHT22;38354;52.892;6.148;2022-07-23T06:29:07;14.70;99.90
52435;DHT22;38354;52.892;6.148;2022-07-23T06:31:33;14.80;99.90
52435;DHT22;38354;52.892;6.148;2022-07-23T06:33:59;14.80;99.90
52435;DHT22;38354;52.892;6.148;2022-07-23T06:36:24;14.90;99.90
52435;DHT22;38354;52.892;6.148;2022-07-23T06:38:50;14.90;99.90
52435;DHT22;38354;52.892;6.148;2022-07-23T06:41:16;14.90;99.90
52435;DHT22;38354;52.892;6.148;2022-07-23T06:43:41;15.00;99.90
52435;DHT22;38354;52.892;6.148;2022-07-23T06:46:07;15.00;99.90
52435;DHT22;38354;52.892;6.148;2022-07-23T06:48:36;15.10;99.90
52435;DHT22;38354;52.892;6.148;2022-07-23T06:51:02;15.10;99.90
52435;DHT22;38354;52.892;6.148;2022-07-23T06:53:28;15.20;99.90
52435;DHT22;38354;52.892;6.148;2022-07-23T06:55:54;15.20;99.90
52435;DHT22;38354;52.892;6.148;2022-07-23T06:58:20;15.30;99.90
52435;DHT22;38354;52.892;6.148;2022-07-23T07:00:46;15.30;99.90
52435;DHT22;38354;52.892;6.148;2022-07-23T07:03:12;15.30;99.90
52435;DHT22;38354;52.892;6.148;2022-07-23T07:05:38;15.30;99.90
52435;DHT22;38354;52.892;6.148;2022-07-23T07:08:05;15.40;99.90
52435;DHT22;38354;52.892;6.148;2022-07-23T07:10:31;15.50;99.90
52435;DHT22;38354;52.892;6.148;2022-07-23T07:12:57;15.60;99.90
52435;DHT22;38354;52.892;6.148;2022-07-23T07:15:22;15.60;99.90
52435;DHT22;38354;52.892;6.148;2022-07-23T07:17:48;15.80;99.90
52435;DHT22;38354;52.892;6.148;2022-07-23T07:20:14;15.80;99.90
52435;DHT22;38354;52.892;6.148;2022-07-23T07:22:40;15.90;99.90
52435;DHT22;38354;52.892;6.148;2022-07-23T07:25:06;16.00;99.90
52435;DHT22;38354;52.892;6.148;2022-07-23T07:27:32;16.10;99.90
52435;DHT22;38354;52.892;6.148;2022-07-23T07:29:58;16.10;99.90
52435;DHT22;38354;52.892;6.148;2022-07-23T07:32:23;16.20;99.90
52435;DHT22;38354;52.892;6.148;2022-07-23T07:34:49;16.30;99.90
52435;DHT22;38354;52.892;6.148;2022-07-23T07:37:15;16.40;99.90
52435;DHT22;38354;52.892;6.148;2022-07-23T07:39:41;16.60;99.90
52435;DHT22;38354;52.892;6.148;2022-07-23T07:42:06;16.60;99.90
52435;DHT22;38354;52.892;6.148;2022-07-23T07:44:32;16.60;99.90
52435;DHT22;38354;52.892;6.148;2022-07-23T07:46:58;16.60;99.90
52435;DHT22;38354;52.892;6.148;2022-07-23T07:49:23;16.50;99.90
52435;DHT22;38354;52.892;6.148;2022-07-23T07:51:49;16.40;99.90
52435;DHT22;38354;52.892;6.148;2022-07-23T07:54:15;16.50;99.90
52435;DHT22;38354;52.892;6.148;2022-07-23T07:56:41;16.60;99.90
52435;DHT22;38354;52.892;6.148;2022-07-23T07:59:06;16.60;99.90
52435;DHT22;38354;52.892;6.148;2022-07-23T08:01:32;16.70;99.90
52435;DHT22;38354;52.892;6.148;2022-07-23T08:03:58;16.70;99.90
52435;DHT22;38354;52.892;6.148;2022-07-23T08:06:24;16.80;99.90
52435;DHT22;38354;52.892;6.148;2022-07-23T08:08:49;16.90;99.90
52435;DHT22;38354;52.892;6.148;2022-07-23T08:11:16;17.00;99.90
52435;DHT22;38354;52.892;6.148;2022-07-23T08:13:41;17.00;99.90
52435;DHT22;38354;52.892;6.148;2022-07-23T08:16:12;17.10;99.90
52435;DHT22;38354;52.892;6.148;2022-07-23T08:18:40;17.10;99.90
52435;DHT22;38354;52.892;6.148;2022-07-23T08:21:06;17.20;99.90
52435;DHT22;38354;52.892;6.148;2022-07-23T08:23:31;17.20;99.90
52435;DHT22;38354;52.892;6.148;2022-07-23T08:25:57;17.40;99.90
52435;DHT22;38354;52.892;6.148;2022-07-23T08:28:25;17.40;99.90
52435;DHT22;38354;52.892;6.148;2022-07-23T08:30:50;17.50;99.90
52435;DHT22;38354;52.892;6.148;2022-07-23T08:33:17;17.70;99.90
52435;DHT22;38354;52.892;6.148;2022-07-23T08:35:45;17.80;99.90
52435;DHT22;38354;52.892;6.148;2022-07-23T08:38:14;17.90;99.90
52435;DHT22;38354;52.892;6.148;2022-07-23T08:40:50;17.90;99.90
52435;DHT22;38354;52.892;6.148;2022-07-23T08:43:24;17.90;99.90
52435;DHT22;38354;52.892;6.148;2022-07-23T08:45:52;17.90;99.90
52435;DHT22;38354;52.892;6.148;2022-07-23T08:48:20;18.00;99.90
52435;DHT22;38354;52.892;6.148;2022-07-23T08:50:55;18.10;99.90
52435;DHT22;38354;52.892;6.148;2022-07-23T08:53:23;18.10;99.90
52435;DHT22;38354;52.892;6.148;2022-07-23T08:55:51;18.10;99.90
52435;DHT22;38354;52.892;6.148;2022-07-23T08:58:17;18.10;99.90
52435;DHT22;38354;52.892;6.148;2022-07-23T09:00:43;18.20;99.90
52435;DHT22;38354;52.892;6.148;2022-07-23T09:03:20;18.30;99.90
52435;DHT22;38354;52.892;6.148;2022-07-23T09:05:48;18.30;99.90
52435;DHT22;38354;52.892;6.148;2022-07-23T09:08:19;18.50;99.90
52435;DHT22;38354;52.892;6.148;2022-07-23T09:10:58;18.60;99.90
52435;DHT22;38354;52.892;6.148;2022-07-23T09:16:09;18.70;99.90
52435;DHT22;38354;52.892;6.148;2022-07-23T09:18:39;18.80;99.90
52435;DHT22;38354;52.892;6.148;2022-07-23T09:21:20;18.80;99.90
52435;DHT22;38354;52.892;6.148;2022-07-23T09:23:51;18.80;99.90
52435;DHT22;38354;52.892;6.148;2022-07-23T09:29:03;18.90;99.90
52435;DHT22;38354;52.892;6.148;2022-07-23T09:31:35;19.10;99.90
52435;DHT22;38354;52.892;6.148;2022-07-23T09:34:22;19.20;99.90
52435;DHT22;38354;52.892;6.148;2022-07-23T09:36:48;19.30;99.90
52435;DHT22;38354;52.892;6.148;2022-07-23T09:39:16;19.20;99.90
52435;DHT22;38354;52.892;6.148;2022-07-23T09:41:48;19.10;99.90
52435;DHT22;38354;52.892;6.148;2022-07-23T09:44:18;19.10;99.90
52435;DHT22;38354;52.892;6.148;2022-07-23T09:46:50;19.00;99.90
52435;DHT22;38354;52.892;6.148;2022-07-23T09:49:23;18.90;99.90
52435;DHT22;38354;52.892;6.148;2022-07-23T09:51:58;19.00;99.90
52435;DHT22;38354;52.892;6.148;2022-07-23T09:54:33;19.20;99.90
52435;DHT22;38354;52.892;6.148;2022-07-23T09:57:03;19.30;99.90
52435;DHT22;38354;52.892;6.148;2022-07-23T09:59:33;19.30;99.90
52435;DHT22;38354;52.892;6.148;2022-07-23T10:01:59;19.50;99.90
52435;DHT22;38354;52.892;6.148;2022-07-23T10:04:27;19.40;99.90
52435;DHT22;38354;52.892;6.148;2022-07-23T10:06:56;19.30;99.90
52435;DHT22;38354;52.892;6.148;2022-07-23T10:09:33;19.40;99.90
52435;DHT22;38354;52.892;6.148;2022-07-23T10:12:04;19.40;99.90
52435;DHT22;38354;52.892;6.148;2022-07-23T10:14:42;19.50;99.90
52435;DHT22;38354;52.892;6.148;2022-07-23T10:17:08;19.60;99.90
52435;DHT22;38354;52.892;6.148;2022-07-23T10:19:35;19.60;99.90
52435;DHT22;38354;52.892;6.148;2022-07-23T10:22:03;19.80;99.90
52435;DHT22;38354;52.892;6.148;2022-07-23T10:34:34;19.90;99.90
52435;DHT22;38354;52.892;6.148;2022-07-23T10:37:15;19.80;99.90
52435;DHT22;38354;52.892;6.148;2022-07-23T10:39:48;19.70;99.90
52435;DHT22;38354;52.892;6.148;2022-07-23T10:42:34;19.80;99.90
52435;DHT22;38354;52.892;6.148;2022-07-23T10:45:00;19.90;99.90
52435;DHT22;38354;52.892;6.148;2022-07-23T10:47:28;20.00;99.90
52435;DHT22;38354;52.892;6.148;2022-07-23T10:50:26;20.20;99.90
52435;DHT22;38354;52.892;6.148;2022-07-23T10:57:57;20.40;99.90
52435;DHT22;38354;52.892;6.148;2022-07-23T11:00:25;20.30;99.90
52435;DHT22;38354;52.892;6.148;2022-07-23T11:02:53;20.30;99.90
52435;DHT22;38354;52.892;6.148;2022-07-23T11:05:22;20.10;99.90
52435;DHT22;38354;52.892;6.148;2022-07-23T11:10:41;20.50;99.90
52435;DHT22;38354;52.892;6.148;2022-07-23T11:24:00;21.20;99.90
52435;DHT22;38354;52.892;6.148;2022-07-23T11:31:57;21.20;99.90
52435;DHT22;38354;52.892;6.148;2022-07-23T11:34:34;21.20;99.90
52435;DHT22;38354;52.892;6.148;2022-07-23T11:37:03;21.00;99.90
52435;DHT22;38354;52.892;6.148;2022-07-23T11:39:30;21.00;99.90
52435;DHT22;38354;52.892;6.148;2022-07-23T11:41:57;20.80;99.90
52435;DHT22;38354;52.892;6.148;2022-07-23T11:44:30;20.90;99.90
52435;DHT22;38354;52.892;6.148;2022-07-23T11:49:23;20.90;99.90
52435;DHT22;38354;52.892;6.148;2022-07-23T11:52:07;20.80;99.90
52435;DHT22;38354;52.892;6.148;2022-07-23T11:54:35;20.50;99.90
52435;DHT22;38354;52.892;6.148;2022-07-23T11:57:03;20.60;99.90
52435;DHT22;38354;52.892;6.148;2022-07-23T11:59:33;20.50;99.90
52435;DHT22;38354;52.892;6.148;2022-07-23T12:02:03;20.60;99.90
52435;DHT22;38354;52.892;6.148;2022-07-23T12:04:44;20.80;99.90
52435;DHT22;38354;52.892;6.148;2022-07-23T12:09:53;21.20;99.90
52435;DHT22;38354;52.892;6.148;2022-07-23T12:12:20;21.20;99.90
52435;DHT22;38354;52.892;6.148;2022-07-23T12:17:19;21.20;99.90
52435;DHT22;38354;52.892;6.148;2022-07-23T12:19:46;21.50;99.90
52435;DHT22;38354;52.892;6.148;2022-07-23T12:22:12;21.80;99.90
52435;DHT22;38354;52.892;6.148;2022-07-23T12:25:03;22.20;99.90
52435;DHT22;38354;52.892;6.148;2022-07-23T12:27:30;22.20;99.90
52435;DHT22;38354;52.892;6.148;2022-07-23T12:29:55;22.10;99.90
52435;DHT22;38354;52.892;6.148;2022-07-23T12:32:27;22.30;99.90
52435;DHT22;38354;52.892;6.148;2022-07-23T12:35:07;22.20;99.90
52435;DHT22;38354;52.892;6.148;2022-07-23T12:37:38;22.50;99.90
52435;DHT22;38354;52.892;6.148;2022-07-23T12:40:29;22.40;99.90
52435;DHT22;38354;52.892;6.148;2022-07-23T12:43:08;22.50;99.90
52435;DHT22;38354;52.892;6.148;2022-07-23T12:45:46;22.50;99.90
52435;DHT22;38354;52.892;6.148;2022-07-23T12:48:29;22.40;99.90
52435;DHT22;38354;52.892;6.148;2022-07-23T12:50:56;22.40;99.90
52435;DHT22;38354;52.892;6.148;2022-07-23T12:53:32;22.30;99.90
52435;DHT22;38354;52.892;6.148;2022-07-23T12:56:07;22.10;99.90
52435;DHT22;38354;52.892;6.148;2022-07-23T12:58:51;22.20;99.90
52435;DHT22;38354;52.892;6.148;2022-07-23T13:04:05;22.50;99.90
52435;DHT22;38354;52.892;6.148;2022-07-23T13:06:36;22.30;99.90
52435;DHT22;38354;52.892;6.148;2022-07-23T13:09:04;22.20;99.90
52435;DHT22;38354;52.892;6.148;2022-07-23T13:11:31;22.10;99.90
52435;DHT22;38354;52.892;6.148;2022-07-23T13:13:57;22.00;99.90
52435;DHT22;38354;52.892;6.148;2022-07-23T13:16:26;22.10;99.90
52435;DHT22;38354;52.892;6.148;2022-07-23T13:18:52;22.00;99.90
52435;DHT22;38354;52.892;6.148;2022-07-23T13:21:18;21.90;99.90
52435;DHT22;38354;52.892;6.148;2022-07-23T13:23:44;21.60;99.90
52435;DHT22;38354;52.892;6.148;2022-07-23T13:26:09;21.50;99.90
52435;DHT22;38354;52.892;6.148;2022-07-23T13:28:35;21.40;99.90
52435;DHT22;38354;52.892;6.148;2022-07-23T13:31:02;21.40;99.90
52435;DHT22;38354;52.892;6.148;2022-07-23T13:33:28;21.50;99.90
52435;DHT22;38354;52.892;6.148;2022-07-23T13:35:54;21.50;99.90
52435;DHT22;38354;52.892;6.148;2022-07-23T13:38:21;21.40;99.90
52435;DHT22;38354;52.892;6.148;2022-07-23T13:40:49;21.30;99.90
52435;DHT22;38354;52.892;6.148;2022-07-23T13:43:17;21.30;99.90
52435;DHT22;38354;52.892;6.148;2022-07-23T13:45:43;21.40;99.90
52435;DHT22;38354;52.892;6.148;2022-07-23T13:48:11;21.40;99.90
52435;DHT22;38354;52.892;6.148;2022-07-23T13:50:48;21.40;99.90
52435;DHT22;38354;52.892;6.148;2022-07-23T13:53:20;21.50;99.90
52435;DHT22;38354;52.892;6.148;2022-07-23T13:55:53;21.50;99.90
52435;DHT22;38354;52.892;6.148;2022-07-23T13:58:20;21.80;99.90
52435;DHT22;38354;52.892;6.148;2022-07-23T14:00:51;21.90;99.90
52435;DHT22;38354;52.892;6.148;2022-07-23T14:05:54;22.00;99.90
52435;DHT22;38354;52.892;6.148;2022-07-23T14:08:29;22.20;99.90
52435;DHT22;38354;52.892;6.148;2022-07-23T14:11:06;22.30;99.90
52435;DHT22;38354;52.892;6.148;2022-07-23T14:13:32;22.50;99.90
52435;DHT22;38354;52.892;6.148;2022-07-23T14:16:01;22.60;99.90
52435;DHT22;38354;52.892;6.148;2022-07-23T14:18:28;22.60;99.90
52435;DHT22;38354;52.892;6.148;2022-07-23T14:21:02;22.70;99.90
52435;DHT22;38354;52.892;6.148;2022-07-23T14:23:51;22.90;99.90
52435;DHT22;38354;52.892;6.148;2022-07-23T14:27:13;23.10;99.90
52435;DHT22;38354;52.892;6.148;2022-07-23T14:33:09;23.10;99.90
52435;DHT22;38354;52.892;6.148;2022-07-23T14:45:28;23.70;99.90
52435;DHT22;38354;52.892;6.148;2022-07-23T14:48:09;23.70;99.90
52435;DHT22;38354;52.892;6.148;2022-07-23T14:54:34;23.80;99.90
52435;DHT22;38354;52.892;6.148;2022-07-23T14:57:13;23.80;99.90
52435;DHT22;38354;52.892;6.148;2022-07-23T14:59:39;23.80;99.90
52435;DHT22;38354;52.892;6.148;2022-07-23T15:02:17;23.80;99.90
52435;DHT22;38354;52.892;6.148;2022-07-23T15:05:03;23.80;99.90
52435;DHT22;38354;52.892;6.148;2022-07-23T15:07:42;23.90;99.90
52435;DHT22;38354;52.892;6.148;2022-07-23T15:10:42;23.80;99.90
52435;DHT22;38354;52.892;6.148;2022-07-23T15:13:08;23.80;99.90
52435;DHT22;38354;52.892;6.148;2022-07-23T15:15:38;23.90;99.90
52435;DHT22;38354;52.892;6.148;2022-07-23T15:18:14;23.90;99.90
52435;DHT22;38354;52.892;6.148;2022-07-23T15:20:40;23.90;99.90
52435;DHT22;38354;52.892;6.148;2022-07-23T15:23:06;23.90;99.90
52435;DHT22;38354;52.892;6.148;2022-07-23T15:25:32;23.90;99.90
52435;DHT22;38354;52.892;6.148;2022-07-23T15:27:58;23.90;99.90
52435;DHT22;38354;52.892;6.148;2022-07-23T15:30:26;23.90;99.90
52435;DHT22;38354;52.892;6.148;2022-07-23T15:32:52;24.00;99.90
52435;DHT22;38354;52.892;6.148;2022-07-23T15:35:19;24.10;99.90
52435;DHT22;38354;52.892;6.148;2022-07-23T15:37:45;24.20;99.90
52435;DHT22;38354;52.892;6.148;2022-07-23T15:40:11;24.20;99.90
52435;DHT22;38354;52.892;6.148;2022-07-23T15:42:37;24.40;99.90
52435;DHT22;38354;52.892;6.148;2022-07-23T15:45:04;24.40;99.90
52435;DHT22;38354;52.892;6.148;2022-07-23T15:47:30;24.20;99.90
52435;DHT22;38354;52.892;6.148;2022-07-23T15:49:59;24.00;99.90
52435;DHT22;38354;52.892;6.148;2022-07-23T15:52:28;23.80;99.90
52435;DHT22;38354;52.892;6.148;2022-07-23T15:55:10;23.90;99.90
52435;DHT22;38354;52.892;6.148;2022-07-23T15:58:05;24.10;99.90
52435;DHT22;38354;52.892;6.148;2022-07-23T16:00:34;24.30;99.90
52435;DHT22;38354;52.892;6.148;2022-07-23T16:02:59;24.20;99.90
52435;DHT22;38354;52.892;6.148;2022-07-23T16:05:25;24.30;99.90
52435;DHT22;38354;52.892;6.148;2022-07-23T16:08:02;24.50;99.90
52435;DHT22;38354;52.892;6.148;2022-07-23T16:10:28;24.60;99.90
52435;DHT22;38354;52.892;6.148;2022-07-23T16:12:54;24.60;99.90
52435;DHT22;38354;52.892;6.148;2022-07-23T16:15:20;24.50;99.90
52435;DHT22;38354;52.892;6.148;2022-07-23T16:17:46;24.50;99.90
52435;DHT22;38354;52.892;6.148;2022-07-23T16:20:12;24.50;99.90
52435;DHT22;38354;52.892;6.148;2022-07-23T16:22:38;24.40;99.90
52435;DHT22;38354;52.892;6.148;2022-07-23T16:25:05;24.40;99.90
52435;DHT22;38354;52.892;6.148;2022-07-23T16:27:35;24.40;99.90
52435;DHT22;38354;52.892;6.148;2022-07-23T16:30:02;24.40;99.90
52435;DHT22;38354;52.892;6.148;2022-07-23T16:32:28;24.30;99.90
52435;DHT22;38354;52.892;6.148;2022-07-23T16:34:53;24.30;99.90
52435;DHT22;38354;52.892;6.148;2022-07-23T16:37:19;24.30;99.90
52435;DHT22;38354;52.892;6.148;2022-07-23T16:39:45;24.30;99.90
52435;DHT22;38354;52.892;6.148;2022-07-23T16:42:11;24.20;99.90
52435;DHT22;38354;52.892;6.148;2022-07-23T16:44:36;24.20;99.90
52435;DHT22;38354;52.892;6.148;2022-07-23T16:47:02;24.10;99.90
52435;DHT22;38354;52.892;6.148;2022-07-23T16:49:28;24.10;99.90
52435;DHT22;38354;52.892;6.148;2022-07-23T16:51:54;24.00;99.90
52435;DHT22;38354;52.892;6.148;2022-07-23T16:54:19;23.80;99.90
52435;DHT22;38354;52.892;6.148;2022-07-23T16:56:45;23.70;99.90
52435;DHT22;38354;52.892;6.148;2022-07-23T16:59:12;23.70;99.90
52435;DHT22;38354;52.892;6.148;2022-07-23T17:01:38;23.60;99.90
52435;DHT22;38354;52.892;6.148;2022-07-23T17:04:04;23.60;99.90
52435;DHT22;38354;52.892;6.148;2022-07-23T17:06:29;23.60;99.90
52435;DHT22;38354;52.892;6.148;2022-07-23T17:08:55;23.60;99.90
52435;DHT22;38354;52.892;6.148;2022-07-23T17:11:21;23.60;99.90
52435;DHT22;38354;52.892;6.148;2022-07-23T17:13:47;23.60;99.90
52435;DHT22;38354;52.892;6.148;2022-07-23T17:16:13;23.60;99.90
52435;DHT22;38354;52.892;6.148;2022-07-23T17:18:38;23.50;99.90
52435;DHT22;38354;52.892;6.148;2022-07-23T17:21:04;23.50;99.90
52435;DHT22;38354;52.892;6.148;2022-07-23T17:23:30;23.50;99.90
52435;DHT22;38354;52.892;6.148;2022-07-23T17:25:55;23.50;99.90
52435;DHT22;38354;52.892;6.148;2022-07-23T17:28:21;23.50;99.90
52435;DHT22;38354;52.892;6.148;2022-07-23T17:30:47;23.50;99.90
52435;DHT22;38354;52.892;6.148;2022-07-23T17:33:12;23.40;99.90
52435;DHT22;38354;52.892;6.148;2022-07-23T17:35:39;23.50;99.90
52435;DHT22;38354;52.892;6.148;2022-07-23T17:38:05;23.40;99.90
52435;DHT22;38354;52.892;6.148;2022-07-23T17:40:31;23.40;99.90
52435;DHT22;38354;52.892;6.148;2022-07-23T17:42:56;23.30;99.90
52435;DHT22;38354;52.892;6.148;2022-07-23T17:45:23;23.30;99.90
52435;DHT22;38354;52.892;6.148;2022-07-23T17:47:48;23.20;99.90
52435;DHT22;38354;52.892;6.148;2022-07-23T17:50:15;23.10;99.90
52435;DHT22;38354;52.892;6.148;2022-07-23T17:52:46;23.00;99.90
52435;DHT22;38354;52.892;6.148;2022-07-23T17:55:12;23.00;99.90
52435;DHT22;38354;52.892;6.148;2022-07-23T17:57:38;23.00;99.90
52435;DHT22;38354;52.892;6.148;2022-07-23T18:00:07;22.90;99.90
52435;DHT22;38354;52.892;6.148;2022-07-23T18:02:33;22.90;99.90
52435;DHT22;38354;52.892;6.148;2022-07-23T18:04:59;22.90;99.90
52435;DHT22;38354;52.892;6.148;2022-07-23T18:07:24;22.80;99.90
52435;DHT22;38354;52.892;6.148;2022-07-23T18:09:50;22.70;99.90
52435;DHT22;38354;52.892;6.148;2022-07-23T18:12:16;22.70;99.90
52435;DHT22;38354;52.892;6.148;2022-07-23T18:14:42;22.70;99.90
52435;DHT22;38354;52.892;6.148;2022-07-23T18:17:07;22.60;99.90
52435;DHT22;38354;52.892;6.148;2022-07-23T18:19:33;22.60;99.90
52435;DHT22;38354;52.892;6.148;2022-07-23T18:21:59;22.50;99.90
52435;DHT22;38354;52.892;6.148;2022-07-23T18:24:26;22.50;99.90
52435;DHT22;38354;52.892;6.148;2022-07-23T18:26:52;22.40;99.90
52435;DHT22;38354;52.892;6.148;2022-07-23T18:29:18;22.40;99.90
52435;DHT22;38354;52.892;6.148;2022-07-23T18:31:43;22.40;99.90
52435;DHT22;38354;52.892;6.148;2022-07-23T18:34:09;22.40;99.90
52435;DHT22;38354;52.892;6.148;2022-07-23T18:36:35;22.30;99.90
52435;DHT22;38354;52.892;6.148;2022-07-23T18:39:00;22.30;99.90
52435;DHT22;38354;52.892;6.148;2022-07-23T18:41:26;22.20;99.90
52435;DHT22;38354;52.892;6.148;2022-07-23T18:43:52;22.20;99.90
52435;DHT22;38354;52.892;6.148;2022-07-23T18:46:18;22.10;99.90
52435;DHT22;38354;52.892;6.148;2022-07-23T18:48:44;22.00;99.90
52435;DHT22;38354;52.892;6.148;2022-07-23T18:51:09;22.00;99.90
52435;DHT22;38354;52.892;6.148;2022-07-23T18:53:35;21.90;99.90
52435;DHT22;38354;52.892;6.148;2022-07-23T18:56:01;21.90;99.90
52435;DHT22;38354;52.892;6.148;2022-07-23T18:58:26;21.80;99.90
52435;DHT22;38354;52.892;6.148;2022-07-23T19:00:52;21.70;99.90
52435;DHT22;38354;52.892;6.148;2022-07-23T19:03:17;21.60;99.90
52435;DHT22;38354;52.892;6.148;2022-07-23T19:05:43;21.60;99.90
52435;DHT22;38354;52.892;6.148;2022-07-23T19:08:09;21.50;99.90
52435;DHT22;38354;52.892;6.148;2022-07-23T19:10:36;21.40;99.90
52435;DHT22;38354;52.892;6.148;2022-07-23T19:13:02;21.40;99.90
52435;DHT22;38354;52.892;6.148;2022-07-23T19:15:28;21.30;99.90
52435;DHT22;38354;52.892;6.148;2022-07-23T19:17:54;21.30;99.90
52435;DHT22;38354;52.892;6.148;2022-07-23T19:20:19;21.20;99.90
52435;DHT22;38354;52.892;6.148;2022-07-23T19:22:45;21.10;99.90
52435;DHT22;38354;52.892;6.148;2022-07-23T19:25:11;21.00;99.90
52435;DHT22;38354;52.892;6.148;2022-07-23T19:27:36;21.00;99.90
52435;DHT22;38354;52.892;6.148;2022-07-23T19:30:08;20.90;99.90
52435;DHT22;38354;52.892;6.148;2022-07-23T19:32:34;20.80;99.90
52435;DHT22;38354;52.892;6.148;2022-07-23T19:35:00;20.80;99.90
52435;DHT22;38354;52.892;6.148;2022-07-23T19:37:26;20.70;99.90
52435;DHT22;38354;52.892;6.148;2022-07-23T19:39:52;20.60;99.90
52435;DHT22;38354;52.892;6.148;2022-07-23T19:42:17;20.50;99.90
52435;DHT22;38354;52.892;6.148;2022-07-23T19:44:43;20.50;99.90
52435;DHT22;38354;52.892;6.148;2022-07-23T19:47:09;20.40;99.90
52435;DHT22;38354;52.892;6.148;2022-07-23T19:49:35;20.30;99.90
52435;DHT22;38354;52.892;6.148;2022-07-23T19:52:00;20.20;99.90
52435;DHT22;38354;52.892;6.148;2022-07-23T19:54:26;20.10;99.90
52435;DHT22;38354;52.892;6.148;2022-07-23T19:56:53;20.10;99.90
52435;DHT22;38354;52.892;6.148;2022-07-23T19:59:19;20.00;99.90
52435;DHT22;38354;52.892;6.148;2022-07-23T20:01:45;20.00;99.90
52435;DHT22;38354;52.892;6.148;2022-07-23T20:04:11;19.90;99.90
52435;DHT22;38354;52.892;6.148;2022-07-23T20:06:37;19.80;99.90
52435;DHT22;38354;52.892;6.148;2022-07-23T20:09:03;19.80;99.90
52435;DHT22;38354;52.892;6.148;2022-07-23T20:11:29;19.70;99.90
52435;DHT22;38354;52.892;6.148;2022-07-23T20:13:56;19.70;99.90
52435;DHT22;38354;52.892;6.148;2022-07-23T20:16:23;19.50;99.90
52435;DHT22;38354;52.892;6.148;2022-07-23T20:18:51;19.40;99.90
52435;DHT22;38354;52.892;6.148;2022-07-23T20:21:20;19.40;99.90
52435;DHT22;38354;52.892;6.148;2022-07-23T20:23:48;19.40;99.90
52435;DHT22;38354;52.892;6.148;2022-07-23T20:28:54;19.30;99.90
52435;DHT22;38354;52.892;6.148;2022-07-23T20:31:23;19.30;99.90
52435;DHT22;38354;52.892;6.148;2022-07-23T20:33:52;19.20;99.90
52435;DHT22;38354;52.892;6.148;2022-07-23T20:36:21;19.20;99.90
52435;DHT22;38354;52.892;6.148;2022-07-23T20:38:50;19.10;99.90
52435;DHT22;38354;52.892;6.148;2022-07-23T20:41:28;19.10;99.90
52435;DHT22;38354;52.892;6.148;2022-07-23T20:43:59;19.00;99.90
52435;DHT22;38354;52.892;6.148;2022-07-23T20:46:27;19.00;99.90
52435;DHT22;38354;52.892;6.148;2022-07-23T20:48:56;18.90;99.90